MPMG - Albrook Marcos A. Gelabert Intl.
MPMG 050300Z AUTO 33006KT //// R01///// // BKN093/// 27/23 Q1011
Observed:
Wind:
Flight Rules:
Cloud Levels:
Temperature:
Humidity:
Pressure: